aviador You're here:

LFRO Decoded Metar

LANNION in FRANCE
Report Time2017-11-21 04:00:00
UTC Time2017-11-21 04:14:31
Flight Rules mvfr MVFR
Wind220° at 06 kt
W.Decomp.*RWY 29: 2.2 kt HW 5.6 kt LCW
W.Rank220° ranks 3
Current wind is below 220° avg. (9.8)
Visibility9999 m
Phenomena:N/A
Clouds:Overcast 018 Hf
Expected CloudBase > 1,200 ft AGL from Temp-Dew spread
Ceiling1,800 ft
Temp12°C (ISA -2)
Dew Point09°C (82% RH)
AAT9.6°C
QNH1016 hPa
Density Alt59 ft
Elevation292 ft
Report Wrong Elevation
Raw Report
LFRO 210400Z AUTO 22006KT 190V250 9999 OVC018 12/09 Q1016=

Extra information for LFRO:More info

Metar Taf Metar & Taf Last 4 Metars F.Rules Stats Wind Profile Meteogram Temp Stats Airport Information Weather charts Add Link Nearby VenuesMetar ALERT Operation Metar Decoded Social comments